Time;durP1;ratioP1;P1;durP2;ratioP2;P2;SDS_P1;SDS_P2;PMS_P1;PMS_P2;Temp;Humidity;BMP_temperature;BMP_pressure;BME280_temperature;BME280_humidity;BME280_pressure;Samples;Min_cycle;Max_cycle;Signal;HPM_P1;HPM_P2
2023/07/07 00:00:50;;;;;;;4.40;2.45;;;;;;;;;;5053536;28;20029;-71
2023/07/07 00:03:16;;;;;;;4.53;2.38;;;;;;;;;;5052993;28;20031;-71
2023/07/07 00:05:45;;;;;;;2.75;2.33;;;;;;;;;;5054405;28;20033;-69
2023/07/07 00:08:11;;;;;;;2.78;2.42;;;;;;;;;;5052835;28;20048;-69
2023/07/07 00:10:42;;;;;;;6.38;2.60;;;;;;;;;;5054733;28;20037;-69
2023/07/07 00:13:12;;;;;;;5.60;2.45;;;;;;;;;;5052696;28;20049;-70
2023/07/07 00:15:37;;;;;;;3.65;3.05;;;;;;;;;;5052457;28;20017;-71
2023/07/07 00:18:03;;;;;;;3.63;3.03;;;;;;;;;;5052846;28;20530;-69
2023/07/07 00:20:31;;;;;;;3.30;3.00;;;;;;;;;;5053720;28;20041;-69
2023/07/07 00:22:58;;;;;;;3.50;2.78;;;;;;;;;;5053689;28;20029;-70
2023/07/07 00:25:24;;;;;;;5.97;3.20;;;;;;;;;;5053732;28;20033;-69
2023/07/07 00:27:49;;;;;;;6.63;3.33;;;;;;;;;;5053481;28;20029;-71
2023/07/07 00:30:15;;;;;;;2.78;2.58;;;;;;;;;;5054037;28;20060;-71
2023/07/07 00:32:40;;;;;;;2.67;2.45;;;;;;;;;;5053315;28;20021;-71
2023/07/07 00:35:06;;;;;;;2.97;2.55;;;;;;;;;;5053708;28;20067;-71
2023/07/07 00:37:31;;;;;;;4.65;2.50;;;;;;;;;;5051974;28;20033;-71
2023/07/07 00:39:57;;;;;;;4.05;2.33;;;;;;;;;;5053809;28;20419;-71
2023/07/07 00:42:23;;;;;;;2.83;2.40;;;;;;;;;;5052755;28;20036;-71
2023/07/07 00:45:00;;;;;;;2.95;2.40;;;;;;;;;;5053257;28;20033;-71
2023/07/07 00:47:26;;;;;;;4.25;2.22;;;;;;;;;;5052122;28;20040;-70
2023/07/07 00:49:51;;;;;;;5.32;2.22;;;;;;;;;;5052784;28;20342;-71
2023/07/07 00:52:17;;;;;;;2.38;2.17;;;;;;;;;;5053453;28;20040;-70
2023/07/07 00:54:42;;;;;;;2.92;2.05;;;;;;;;;;5052456;28;20025;-70
2023/07/07 00:57:09;;;;;;;2.35;2.10;;;;;;;;;;5054332;28;20147;-71
2023/07/07 00:59:39;;;;;;;2.58;2.05;;;;;;;;;;5056464;28;20048;-70
2023/07/07 01:02:09;;;;;;;2.80;2.60;;;;;;;;;;5040262;28;20051;-70
2023/07/07 01:04:34;;;;;;;5.25;2.65;;;;;;;;;;5056694;28;20543;-70
2023/07/07 01:07:05;;;;;;;4.30;3.38;;;;;;;;;;5055614;28;21944;-71
2023/07/07 01:09:30;;;;;;;;;;;;;;;;;;5058019;28;20108;-71
2023/07/07 01:11:55;;;;;;;4.13;2.23;;;;;;;;;;5056200;28;20043;-71
2023/07/07 01:14:22;;;;;;;3.50;2.88;;;;;;;;;;5057669;28;20453;-71
2023/07/07 01:17:06;;;;;;;3.45;2.53;;;;;;;;;;5057454;28;20028;-71
2023/07/07 01:19:44;;;;;;;2.80;2.35;;;;;;;;;;5057150;28;20021;-71
2023/07/07 01:22:10;;;;;;;2.60;2.17;;;;;;;;;;5056157;28;20035;-71
2023/07/07 01:24:41;;;;;;;3.00;2.47;;;;;;;;;;5057327;28;20384;-71
2023/07/07 01:27:19;;;;;;;3.85;2.35;;;;;;;;;;5055693;28;20443;-71
2023/07/07 01:30:04;;;;;;;5.07;2.58;;;;;;;;;;5057187;28;20031;-71
2023/07/07 01:32:30;;;;;;;5.25;3.00;;;;;;;;;;5055815;28;20048;-70
2023/07/07 01:34:56;;;;;;;4.40;2.70;;;;;;;;;;5056726;28;20544;-70
2023/07/07 01:37:22;;;;;;;8.32;2.45;;;;;;;;;;5056591;28;20028;-70
2023/07/07 01:39:47;;;;;;;3.08;2.25;;;;;;;;;;5057057;28;20051;-71
2023/07/07 01:42:26;;;;;;;4.32;2.70;;;;;;;;;;5055541;28;20029;-72
2023/07/07 01:45:12;;;;;;;2.40;2.28;;;;;;;;;;5055822;28;20029;-71
2023/07/07 01:47:38;;;;;;;2.70;2.50;;;;;;;;;;5005380;28;20041;-71
2023/07/07 01:50:36;;;;;;;2.60;2.38;;;;;;;;;;5055251;28;20028;-72
2023/07/07 01:53:06;;;;;;;3.88;2.45;;;;;;;;;;5001310;28;20044;-71
2023/07/07 01:55:39;;;;;;;3.10;2.70;;;;;;;;;;5056974;28;20060;-71
2023/07/07 01:58:06;;;;;;;4.95;3.00;;;;;;;;;;5055586;28;20428;-71
2023/07/07 02:00:32;;;;;;;4.55;2.53;;;;;;;;;;5055892;28;20033;-71
2023/07/07 02:02:58;;;;;;;3.03;2.30;;;;;;;;;;5056961;28;20041;-71
2023/07/07 02:05:25;;;;;;;2.80;2.40;;;;;;;;;;5056366;28;20036;-71
2023/07/07 02:07:51;;;;;;;2.42;2.22;;;;;;;;;;5054846;28;20036;-71
2023/07/07 02:10:16;;;;;;;2.67;2.47;;;;;;;;;;5053746;28;20499;-71
2023/07/07 02:12:42;;;;;;;4.97;2.35;;;;;;;;;;5066449;28;20036;-71
2023/07/07 02:15:07;;;;;;;3.60;2.28;;;;;;;;;;5058812;28;20046;-71
2023/07/07 02:17:33;;;;;;;5.00;2.30;;;;;;;;;;5041798;28;20078;-71
2023/07/07 02:19:58;;;;;;;2.97;2.30;;;;;;;;;;5058195;28;20032;-70
2023/07/07 02:22:24;;;;;;;3.60;2.40;;;;;;;;;;5076297;28;20029;-70
2023/07/07 02:24:49;;;;;;;2.63;2.42;;;;;;;;;;5076512;28;20460;-70
2023/07/07 02:27:15;;;;;;;2.60;2.33;;;;;;;;;;5075834;28;20531;-70
2023/07/07 02:29:40;;;;;;;2.95;2.38;;;;;;;;;;5076219;28;20419;-71
2023/07/07 02:32:06;;;;;;;2.63;2.42;;;;;;;;;;5057823;28;20032;-71
2023/07/07 02:34:31;;;;;;;2.75;2.33;;;;;;;;;;5076245;28;20047;-71
2023/07/07 02:36:58;;;;;;;3.63;2.17;;;;;;;;;;5058533;28;20021;-71
2023/07/07 02:39:24;;;;;;;3.75;2.22;;;;;;;;;;5076255;28;20095;-71
2023/07/07 02:41:50;;;;;;;2.67;1.90;;;;;;;;;;5057725;28;20052;-71
2023/07/07 02:44:15;;;;;;;3.40;2.22;;;;;;;;;;5041140;28;20434;-71
2023/07/07 02:46:41;;;;;;;2.30;2.08;;;;;;;;;;5075882;28;20020;-70
2023/07/07 02:49:06;;;;;;;2.63;2.40;;;;;;;;;;5074900;28;20051;-70
2023/07/07 02:51:32;;;;;;;2.33;2.22;;;;;;;;;;5058322;28;20055;-70
2023/07/07 02:53:58;;;;;;;8.10;2.53;;;;;;;;;;5058009;28;20047;-69
2023/07/07 02:56:23;;;;;;;3.10;2.08;;;;;;;;;;5057820;28;20341;-71
2023/07/07 02:58:49;;;;;;;2.25;2.05;;;;;;;;;;5057623;28;20375;-71
2023/07/07 03:01:16;;;;;;;2.13;2.03;;;;;;;;;;5041487;28;20455;-70
2023/07/07 03:03:42;;;;;;;3.47;2.33;;;;;;;;;;5057674;28;20025;-70
2023/07/07 03:06:09;;;;;;;3.58;2.17;;;;;;;;;;5057180;28;20040;-71
2023/07/07 03:08:36;;;;;;;4.25;2.22;;;;;;;;;;5057093;28;20107;-71
2023/07/07 03:11:08;;;;;;;2.72;2.05;;;;;;;;;;5057515;28;20112;-70
2023/07/07 03:13:36;;;;;;;3.08;2.20;;;;;;;;;;5057134;28;20404;-70
2023/07/07 03:16:11;;;;;;;2.55;1.90;;;;;;;;;;5057342;28;20024;-65
2023/07/07 03:18:39;;;;;;;2.10;2.00;;;;;;;;;;5040891;28;20086;-64
2023/07/07 03:21:04;;;;;;;2.70;1.83;;;;;;;;;;5057251;28;20102;-63
2023/07/07 03:23:30;;;;;;;2.65;1.90;;;;;;;;;;5057142;28;20115;-63
2023/07/07 03:26:04;;;;;;;2.60;2.13;;;;;;;;;;5040457;28;20115;-64
2023/07/07 03:28:30;;;;;;;4.32;2.15;;;;;;;;;;5056848;28;20039;-63
2023/07/07 03:30:56;;;;;;;2.05;1.95;;;;;;;;;;5074612;28;20024;-61
2023/07/07 03:33:21;;;;;;;4.47;2.00;;;;;;;;;;5056812;28;20044;-61
2023/07/07 03:35:49;;;;;;;2.22;2.08;;;;;;;;;;5056932;28;20035;-62
2023/07/07 03:38:15;;;;;;;2.45;2.20;;;;;;;;;;5056853;28;20039;-62
2023/07/07 03:40:47;;;;;;;4.68;2.10;;;;;;;;;;5039924;28;20025;-62
2023/07/07 03:43:18;;;;;;;2.33;2.13;;;;;;;;;;5040379;28;20033;-62
2023/07/07 03:45:44;;;;;;;4.25;2.08;;;;;;;;;;5057087;28;20111;-62
2023/07/07 03:48:09;;;;;;;3.25;1.95;;;;;;;;;;5039663;28;20158;-62
2023/07/07 03:50:34;;;;;;;3.38;2.08;;;;;;;;;;5074681;28;20032;-63
2023/07/07 03:53:00;;;;;;;3.40;2.20;;;;;;;;;;5056962;28;20040;-62
2023/07/07 03:55:26;;;;;;;2.70;2.30;;;;;;;;;;5056803;28;20028;-62
2023/07/07 03:57:51;;;;;;;4.85;2.55;;;;;;;;;;5074669;28;20480;-65
2023/07/07 04:00:18;;;;;;;2.50;2.30;;;;;;;;;;5056859;28;20051;-65
2023/07/07 04:02:43;;;;;;;3.10;2.42;;;;;;;;;;5074022;28;20044;-64
2023/07/07 04:05:10;;;;;;;5.63;2.53;;;;;;;;;;5056086;28;20445;-67
2023/07/07 04:07:35;;;;;;;2.92;2.72;;;;;;;;;;5073463;28;20102;-67
2023/07/07 04:10:01;;;;;;;4.15;2.80;;;;;;;;;;5055577;28;20369;-67
2023/07/07 04:12:27;;;;;;;3.45;3.15;;;;;;;;;;5032025;28;20072;-67
2023/07/07 04:14:52;;;;;;;3.92;2.83;;;;;;;;;;5033483;28;20029;-67
2023/07/07 04:17:17;;;;;;;4.35;3.10;;;;;;;;;;5032248;28;20036;-67
2023/07/07 04:19:43;;;;;;;4.20;2.97;;;;;;;;;;5032966;28;20037;-66
2023/07/07 04:22:08;;;;;;;7.53;3.17;;;;;;;;;;5033565;28;20431;-67
2023/07/07 04:24:34;;;;;;;5.03;3.03;;;;;;;;;;5032469;28;20025;-68
2023/07/07 04:27:00;;;;;;;2.95;2.65;;;;;;;;;;5033332;28;20034;-68
2023/07/07 04:29:25;;;;;;;3.47;2.88;;;;;;;;;;5032574;28;20023;-68
2023/07/07 04:31:51;;;;;;;4.28;2.80;;;;;;;;;;5033287;28;20037;-68
2023/07/07 04:34:17;;;;;;;2.80;2.60;;;;;;;;;;5033830;28;20152;-67
2023/07/07 04:36:43;;;;;;;4.28;2.17;;;;;;;;;;5033502;28;20091;-67
2023/07/07 04:39:08;;;;;;;3.03;2.70;;;;;;;;;;5033731;28;20021;-67
2023/07/07 04:41:34;;;;;;;2.97;2.45;;;;;;;;;;5033299;28;20032;-67
2023/07/07 04:44:00;;;;;;;6.10;3.10;;;;;;;;;;5032172;28;20550;-67
2023/07/07 04:46:45;;;;;;;3.13;2.83;;;;;;;;;;5033141;28;20036;-67
2023/07/07 04:49:11;;;;;;;6.50;3.10;;;;;;;;;;5031120;28;20041;-68
2023/07/07 04:51:37;;;;;;;4.78;3.22;;;;;;;;;;5029788;28;20797;-68
2023/07/07 04:54:03;;;;;;;5.40;2.97;;;;;;;;;;5032065;28;20036;-68
2023/07/07 04:56:28;;;;;;;8.05;3.42;;;;;;;;;;5032502;28;20523;-68
2023/07/07 04:58:56;;;;;;;3.47;3.10;;;;;;;;;;5031642;28;20335;-68
2023/07/07 05:01:24;;;;;;;3.80;2.92;;;;;;;;;;5033446;28;20034;-67
2023/07/07 05:03:51;;;;;;;3.15;2.80;;;;;;;;;;5033127;28;20470;-68
2023/07/07 05:06:17;;;;;;;3.85;3.15;;;;;;;;;;5033283;28;20063;-68
2023/07/07 05:08:42;;;;;;;3.42;3.05;;;;;;;;;;5031716;28;20041;-68
2023/07/07 05:11:12;;;;;;;5.63;3.50;;;;;;;;;;5033013;28;20045;-67
2023/07/07 05:13:38;;;;;;;3.65;3.30;;;;;;;;;;5032987;28;20038;-66
2023/07/07 05:16:08;;;;;;;4.70;3.50;;;;;;;;;;5033604;28;20045;-66
2023/07/07 05:18:34;;;;;;;7.22;3.28;;;;;;;;;;5032034;28;20048;-66
2023/07/07 05:20:59;;;;;;;4.22;3.50;;;;;;;;;;5032857;28;20386;-66
2023/07/07 05:23:25;;;;;;;5.32;3.25;;;;;;;;;;5031046;28;20037;-71
2023/07/07 05:25:52;;;;;;;7.53;3.90;;;;;;;;;;5033244;28;20588;-66
2023/07/07 05:28:17;;;;;;;3.83;3.38;;;;;;;;;;5032791;28;20123;-66
2023/07/07 05:30:43;;;;;;;3.80;3.50;;;;;;;;;;5032885;28;20061;-71
2023/07/07 05:33:08;;;;;;;3.63;3.33;;;;;;;;;;5032967;28;20572;-71
2023/07/07 05:35:34;;;;;;;3.83;3.50;;;;;;;;;;5033303;28;20355;-72
2023/07/07 05:38:02;;;;;;;6.63;3.83;;;;;;;;;;5032145;28;20108;-71
2023/07/07 05:40:28;;;;;;;4.50;3.92;;;;;;;;;;5032136;28;20033;-71
2023/07/07 05:42:53;;;;;;;6.53;3.08;;;;;;;;;;5015615;28;20367;-72
2023/07/07 05:45:19;;;;;;;5.63;4.20;;;;;;;;;;5036930;28;20099;-71
2023/07/07 05:47:45;;;;;;;3.75;3.25;;;;;;;;;;5036904;28;20033;-71
2023/07/07 05:50:10;;;;;;;5.43;3.90;;;;;;;;;;5037066;28;20537;-72
2023/07/07 05:52:35;;;;;;;4.80;3.65;;;;;;;;;;5036927;28;20087;-72
2023/07/07 05:55:03;;;;;;;6.25;3.30;;;;;;;;;;5036620;28;20109;-72
2023/07/07 05:57:28;;;;;;;3.70;3.25;;;;;;;;;;5036747;28;20033;-72
2023/07/07 05:59:54;;;;;;;4.03;3.20;;;;;;;;;;5036675;28;20113;-72
2023/07/07 06:02:19;;;;;;;4.40;3.45;;;;;;;;;;5036403;28;20033;-72
2023/07/07 06:04:44;;;;;;;4.55;3.80;;;;;;;;;;5036493;28;20033;-72
2023/07/07 06:07:10;;;;;;;4.60;3.85;;;;;;;;;;5036430;28;20552;-71
2023/07/07 06:09:35;;;;;;;4.70;4.13;;;;;;;;;;5034492;28;20404;-71
2023/07/07 06:12:01;;;;;;;5.55;3.88;;;;;;;;;;5040595;28;20041;-71
2023/07/07 06:14:26;;;;;;;6.40;3.53;;;;;;;;;;5056306;28;20480;-71
2023/07/07 06:16:52;;;;;;;5.35;3.85;;;;;;;;;;5056097;28;20028;-71
2023/07/07 06:19:17;;;;;;;4.22;3.45;;;;;;;;;;5055792;28;20427;-71
2023/07/07 06:21:42;;;;;;;4.82;3.80;;;;;;;;;;5053878;28;20035;-71
2023/07/07 06:24:07;;;;;;;5.80;3.50;;;;;;;;;;5053751;28;20491;-71
2023/07/07 06:26:33;;;;;;;7.28;4.07;;;;;;;;;;5053735;28;20039;-71
2023/07/07 06:28:58;;;;;;;6.00;4.22;;;;;;;;;;5053858;28;20040;-71
2023/07/07 06:31:23;;;;;;;5.13;4.15;;;;;;;;;;5054007;28;20384;-71
2023/07/07 06:33:49;;;;;;;10.40;4.53;;;;;;;;;;5035983;28;20070;-71
2023/07/07 06:36:14;;;;;;;3.75;3.45;;;;;;;;;;5054461;28;20017;-71
2023/07/07 06:38:40;;;;;;;8.55;4.20;;;;;;;;;;5037161;28;20061;-71
2023/07/07 06:41:07;;;;;;;4.07;3.67;;;;;;;;;;5055357;28;20037;-71
2023/07/07 06:43:32;;;;;;;5.35;3.88;;;;;;;;;;5037436;28;20033;-71
2023/07/07 06:45:59;;;;;;;5.22;3.92;;;;;;;;;;5021387;28;20412;-71
2023/07/07 06:48:24;;;;;;;5.45;3.67;;;;;;;;;;5037270;28;20029;-71
2023/07/07 06:50:50;;;;;;;4.32;3.92;;;;;;;;;;5055169;28;20029;-71
2023/07/07 06:53:16;;;;;;;4.20;3.33;;;;;;;;;;5055025;28;20116;-71
2023/07/07 06:55:41;;;;;;;4.00;3.55;;;;;;;;;;5020131;28;20029;-71
2023/07/07 06:58:08;;;;;;;6.78;3.95;;;;;;;;;;5037207;28;20386;-71
2023/07/07 07:00:33;;;;;;;6.70;3.90;;;;;;;;;;5054958;28;20032;-71
2023/07/07 07:02:58;;;;;;;5.35;3.50;;;;;;;;;;5055550;28;20103;-71
2023/07/07 07:05:23;;;;;;;6.25;3.92;;;;;;;;;;5054886;28;20469;-71
2023/07/07 07:07:49;;;;;;;4.97;3.38;;;;;;;;;;5054880;28;20455;-71
2023/07/07 07:10:14;;;;;;;4.05;3.50;;;;;;;;;;5054780;28;20033;-71
2023/07/07 07:12:40;;;;;;;5.45;3.70;;;;;;;;;;5053557;28;20045;-71
2023/07/07 07:15:06;;;;;;;5.13;3.42;;;;;;;;;;5053735;28;20166;-71
2023/07/07 07:17:31;;;;;;;3.92;3.30;;;;;;;;;;5053615;28;20094;-72
2023/07/07 07:19:56;;;;;;;5.07;2.63;;;;;;;;;;5053632;28;20037;-72
2023/07/07 07:22:22;;;;;;;1.98;1.88;;;;;;;;;;5053634;28;20528;-72
2023/07/07 07:24:47;;;;;;;3.55;2.92;;;;;;;;;;5053457;28;20036;-72
2023/07/07 07:27:12;;;;;;;3.63;2.40;;;;;;;;;;5053333;28;20044;-71
2023/07/07 07:29:41;;;;;;;2.58;2.15;;;;;;;;;;5053425;28;20025;-71
2023/07/07 07:32:07;;;;;;;3.03;2.67;;;;;;;;;;5053376;28;20489;-71
2023/07/07 07:34:32;;;;;;;5.55;2.40;;;;;;;;;;5053359;28;20057;-72
2023/07/07 07:36:59;;;;;;;2.45;2.17;;;;;;;;;;5053343;28;20100;-71
2023/07/07 07:39:24;;;;;;;2.00;1.90;;;;;;;;;;5035646;28;20033;-71
2023/07/07 07:41:50;;;;;;;3.50;1.75;;;;;;;;;;5053150;28;20028;-71
2023/07/07 07:44:16;;;;;;;3.15;2.22;;;;;;;;;;5053128;28;20037;-71
2023/07/07 07:46:42;;;;;;;2.38;2.17;;;;;;;;;;5053056;28;20108;-71
2023/07/07 07:49:08;;;;;;;1.80;1.70;;;;;;;;;;5052919;28;20033;-71
2023/07/07 07:51:37;;;;;;;2.80;1.95;;;;;;;;;;5053027;28;20127;-71
2023/07/07 07:54:02;;;;;;;3.45;2.20;;;;;;;;;;5053028;28;20480;-71
2023/07/07 07:56:28;;;;;;;20.13;14.85;;;;;;;;;;5053215;28;20118;-71
2023/07/07 07:58:53;;;;;;;2.92;2.20;;;;;;;;;;5052902;28;20033;-71
2023/07/07 08:01:18;;;;;;;2.30;2.10;;;;;;;;;;5052868;28;20025;-71
2023/07/07 08:03:44;;;;;;;2.83;1.85;;;;;;;;;;5052667;28;20025;-71
2023/07/07 08:06:09;;;;;;;2.50;2.00;;;;;;;;;;5035070;28;20388;-71
2023/07/07 08:08:35;;;;;;;2.70;1.83;;;;;;;;;;5052765;28;20033;-71
2023/07/07 08:11:01;;;;;;;2.30;2.08;;;;;;;;;;5053349;28;20040;-71
2023/07/07 08:13:27;;;;;;;2.28;2.08;;;;;;;;;;5052483;28;20562;-71
2023/07/07 08:15:52;;;;;;;6.28;2.00;;;;;;;;;;5052649;28;20025;-71
2023/07/07 08:18:17;;;;;;;1.90;1.77;;;;;;;;;;5052589;28;20060;-72
2023/07/07 08:20:42;;;;;;;2.10;1.90;;;;;;;;;;5034649;28;20036;-72
2023/07/07 08:23:08;;;;;;;4.53;2.10;;;;;;;;;;5034793;28;20033;-71
2023/07/07 08:25:34;;;;;;;2.47;1.85;;;;;;;;;;5052713;28;20108;-71
2023/07/07 08:28:00;;;;;;;2.80;2.17;;;;;;;;;;5052275;28;20079;-71
2023/07/07 08:30:25;;;;;;;4.07;2.22;;;;;;;;;;5052411;28;20037;-71
2023/07/07 08:32:50;;;;;;;5.50;2.80;;;;;;;;;;5052388;28;20028;-71
2023/07/07 08:35:15;;;;;;;5.05;2.40;;;;;;;;;;5034516;28;20024;-71
2023/07/07 08:37:42;;;;;;;5.00;2.35;;;;;;;;;;5052288;28;20534;-71
2023/07/07 08:40:11;;;;;;;2.70;1.90;;;;;;;;;;5052287;28;20024;-71
2023/07/07 08:42:38;;;;;;;2.25;1.92;;;;;;;;;;5052236;28;20485;-71
2023/07/07 08:45:12;;;;;;;4.75;1.90;;;;;;;;;;5052679;28;20461;-71
2023/07/07 08:47:37;;;;;;;2.28;2.08;;;;;;;;;;5053030;28;20112;-71
2023/07/07 08:50:05;;;;;;;2.28;2.10;;;;;;;;;;5035253;28;20124;-71
2023/07/07 08:52:50;;;;;;;2.03;1.77;;;;;;;;;;5053131;28;20021;-71
2023/07/07 08:55:33;;;;;;;1.70;1.60;;;;;;;;;;5053130;28;20047;-71
2023/07/07 08:58:18;;;;;;;2.05;1.63;;;;;;;;;;5035287;28;20029;-72
2023/07/07 09:00:44;;;;;;;1.90;1.63;;;;;;;;;;5085169;23;20062;-66
2023/07/07 09:03:34;;;;;;;1.63;1.52;;;;;;;;;;5053062;28;20025;-71
2023/07/07 09:05:59;;;;;;;3.35;1.50;;;;;;;;;;5053070;28;20051;-71
2023/07/07 09:08:37;;;;;;;2.45;2.22;;;;;;;;;;5052976;28;20552;-71
2023/07/07 09:11:16;;;;;;;2.63;2.42;;;;;;;;;;5052993;28;20037;-72
2023/07/07 09:13:44;;;;;;;2.35;1.65;;;;;;;;;;5052980;28;20082;-71
2023/07/07 09:16:12;;;;;;;3.92;3.70;;;;;;;;;;5051767;28;20420;-71
2023/07/07 09:18:48;;;;;;;5.13;2.20;;;;;;;;;;5054413;28;20064;-71
2023/07/07 09:21:29;;;;;;;2.67;2.47;;;;;;;;;;5056816;28;20036;-71
2023/07/07 09:23:57;;;;;;;3.92;3.20;;;;;;;;;;5055619;28;20043;-71
2023/07/07 09:26:28;;;;;;;2.88;2.60;;;;;;;;;;5056804;28;20024;-71
2023/07/07 09:28:55;;;;;;;3.88;2.40;;;;;;;;;;5056674;28;20028;-71
2023/07/07 09:31:23;;;;;;;2.25;2.08;;;;;;;;;;5056718;28;20052;-71
2023/07/07 09:33:49;;;;;;;2.40;2.17;;;;;;;;;;5055752;28;20098;-71
2023/07/07 09:36:23;;;;;;;1.88;1.77;;;;;;;;;;5056578;28;20016;-71
2023/07/07 09:39:12;;;;;;;3.05;2.22;;;;;;;;;;5056542;28;20029;-71
2023/07/07 09:41:37;;;;;;;1.88;1.77;;;;;;;;;;5056248;28;20055;-71
2023/07/07 09:44:14;;;;;;;2.83;2.15;;;;;;;;;;5055176;28;20465;-71
2023/07/07 09:46:49;;;;;;;2.33;2.00;;;;;;;;;;5055095;28;20135;-72
2023/07/07 09:49:22;;;;;;;2.05;1.67;;;;;;;;;;5056312;28;20048;-71
2023/07/07 09:51:54;;;;;;;1.70;1.60;;;;;;;;;;5056372;28;20409;-71
2023/07/07 09:54:21;;;;;;;1.85;1.73;;;;;;;;;;5054991;28;20538;-71
2023/07/07 09:56:50;;;;;;;1.65;1.30;;;;;;;;;;5056256;28;20028;-71
2023/07/07 09:59:20;;;;;;;1.43;1.33;;;;;;;;;;5056179;28;20060;-72
2023/07/07 10:01:48;;;;;;;2.80;1.58;;;;;;;;;;5067220;28;20495;-71
2023/07/07 10:04:15;;;;;;;1.42;1.35;;;;;;;;;;5057182;28;20055;-71
2023/07/07 10:06:48;;;;;;;3.22;1.90;;;;;;;;;;5075150;28;20447;-72
2023/07/07 10:09:14;;;;;;;3.70;1.90;;;;;;;;;;5056860;28;20377;-72
2023/07/07 10:11:40;;;;;;;1.60;1.50;;;;;;;;;;5057144;28;20033;-72
2023/07/07 10:14:06;;;;;;;1.77;1.67;;;;;;;;;;5074910;28;20116;-72
2023/07/07 10:16:35;;;;;;;1.90;1.67;;;;;;;;;;5074842;28;20052;-72
2023/07/07 10:19:05;;;;;;;2.65;1.50;;;;;;;;;;5056929;28;20037;-72
2023/07/07 10:21:31;;;;;;;1.40;1.30;;;;;;;;;;5074727;28;20036;-71
2023/07/07 10:23:56;;;;;;;2.40;1.45;;;;;;;;;;5074841;28;20036;-71
2023/07/07 10:26:22;;;;;;;1.60;1.50;;;;;;;;;;5074645;28;20082;-71
2023/07/07 10:28:47;;;;;;;1.60;1.40;;;;;;;;;;5074557;28;20039;-71
2023/07/07 10:31:14;;;;;;;2.58;1.67;;;;;;;;;;5073487;28;20033;-71
2023/07/07 10:33:40;;;;;;;3.10;1.85;;;;;;;;;;5074583;28;20025;-71
2023/07/07 10:36:26;;;;;;;3.22;2.90;;;;;;;;;;5074510;28;20025;-72
2023/07/07 10:38:53;;;;;;;2.38;1.92;;;;;;;;;;5074856;28;20047;-72
2023/07/07 10:41:19;;;;;;;1.70;1.60;;;;;;;;;;5074448;28;20488;-72
2023/07/07 10:43:44;;;;;;;1.67;1.40;;;;;;;;;;5074488;28;20042;-72
2023/07/07 10:46:10;;;;;;;7.72;2.05;;;;;;;;;;5056310;28;20033;-72
2023/07/07 10:48:39;;;;;;;1.60;1.50;;;;;;;;;;5074267;28;20032;-72
2023/07/07 10:51:23;;;;;;;1.75;1.50;;;;;;;;;;5074206;28;20052;-72
2023/07/07 10:54:06;;;;;;;2.15;1.60;;;;;;;;;;5074174;28;20035;-71
2023/07/07 10:56:38;;;;;;;1.65;1.50;;;;;;;;;;5074186;28;20341;-71
2023/07/07 10:59:22;;;;;;;2.10;1.30;;;;;;;;;;5074031;28;20123;-71
2023/07/07 11:02:02;;;;;;;1.40;1.30;;;;;;;;;;5073811;28;20052;-72
2023/07/07 11:04:28;;;;;;;;;;;;;;;;;;5074447;28;20033;-72
2023/07/07 11:06:59;;;;;;;2.22;1.80;;;;;;;;;;5056065;28;20208;-71
2023/07/07 11:09:37;;;;;;;1.65;1.50;;;;;;;;;;5055962;28;20032;-71
2023/07/07 11:12:16;;;;;;;1.40;1.27;;;;;;;;;;5074209;28;20036;-71
2023/07/07 11:15:00;;;;;;;1.75;1.55;;;;;;;;;;5055806;28;20028;-71
2023/07/07 11:17:45;;;;;;;2.55;1.60;;;;;;;;;;5073681;28;20064;-71
2023/07/07 11:20:11;;;;;;;1.40;1.30;;;;;;;;;;5032381;28;20489;-71
2023/07/07 11:22:39;;;;;;;1.98;1.40;;;;;;;;;;5073564;28;20060;-71
2023/07/07 11:25:15;;;;;;;2.50;1.48;;;;;;;;;;5073570;28;20025;-71
2023/07/07 11:27:40;;;;;;;1.65;1.50;;;;;;;;;;5055506;28;20043;-71
2023/07/07 11:30:13;;;;;;;2.25;1.65;;;;;;;;;;5038837;28;20032;-71
2023/07/07 11:32:44;;;;;;;2.35;1.77;;;;;;;;;;5073253;28;20036;-71
2023/07/07 11:35:21;;;;;;;2.63;1.27;;;;;;;;;;5073339;28;20027;-71
2023/07/07 11:38:05;;;;;;;3.13;1.65;;;;;;;;;;5073413;28;20473;-71
2023/07/07 11:40:51;;;;;;;18.33;2.88;;;;;;;;;;5073227;28;20024;-71
2023/07/07 11:43:45;;;;;;;1.55;1.45;;;;;;;;;;5073182;28;20120;-69
2023/07/07 11:46:15;;;;;;;1.50;1.40;;;;;;;;;;5055558;28;20037;-63
2023/07/07 11:48:42;;;;;;;2.25;1.55;;;;;;;;;;5073423;28;20091;-62
2023/07/07 11:51:16;;;;;;;4.22;1.70;;;;;;;;;;5055102;28;20036;-62
2023/07/07 11:53:41;;;;;;;2.30;1.65;;;;;;;;;;5073084;28;20017;-62
2023/07/07 11:56:06;;;;;;;1.33;1.33;;;;;;;;;;5072937;28;20050;-62
2023/07/07 11:58:44;;;;;;;1.97;1.50;;;;;;;;;;5072989;28;20103;-62
2023/07/07 12:01:18;;;;;;;2.95;2.00;;;;;;;;;;5072803;28;20283;-62
2023/07/07 12:03:53;;;;;;;2.67;1.70;;;;;;;;;;5072895;28;20032;-62
2023/07/07 12:06:24;;;;;;;2.20;1.40;;;;;;;;;;5054814;28;20097;-62
2023/07/07 12:09:01;;;;;;;1.70;1.50;;;;;;;;;;5072664;28;20035;-62
2023/07/07 12:11:30;;;;;;;2.30;1.88;;;;;;;;;;5072772;28;20431;-62
2023/07/07 12:14:10;;;;;;;1.48;1.42;;;;;;;;;;5054757;28;20024;-62
2023/07/07 12:16:36;;;;;;;1.73;1.63;;;;;;;;;;5072616;28;20028;-62
2023/07/07 12:19:10;;;;;;;7.75;2.28;;;;;;;;;;5054768;28;20369;-62
2023/07/07 12:21:35;;;;;;;4.60;1.63;;;;;;;;;;5072561;28;20029;-62
2023/07/07 12:24:12;;;;;;;2.35;1.40;;;;;;;;;;5037970;28;20040;-62
2023/07/07 12:26:41;;;;;;;1.70;1.60;;;;;;;;;;5072504;28;20079;-62
2023/07/07 12:29:07;;;;;;;1.97;1.40;;;;;;;;;;5072406;28;20017;-62
2023/07/07 12:31:32;;;;;;;3.08;1.20;;;;;;;;;;5054555;28;20047;-62
2023/07/07 12:34:15;;;;;;;1.40;1.30;;;;;;;;;;5072373;28;20031;-62
2023/07/07 12:36:40;;;;;;;1.60;1.50;;;;;;;;;;5072341;28;20085;-62
2023/07/07 12:39:07;;;;;;;1.85;1.08;;;;;;;;;;5072341;28;20096;-62
2023/07/07 12:41:35;;;;;;;1.83;1.48;;;;;;;;;;5072388;28;20036;-62
2023/07/07 12:44:05;;;;;;;1.83;1.35;;;;;;;;;;5054690;28;20056;-63
2023/07/07 12:46:30;;;;;;;1.80;1.70;;;;;;;;;;5061814;28;20491;-63
2023/07/07 12:49:00;;;;;;;1.88;1.77;;;;;;;;;;5073896;28;20033;-63
2023/07/07 12:51:30;;;;;;;1.80;1.58;;;;;;;;;;5073119;28;20091;-69
2023/07/07 12:53:56;;;;;;;1.83;1.60;;;;;;;;;;5071853;28;20035;-70
2023/07/07 12:56:22;;;;;;;2.33;1.60;;;;;;;;;;5071181;28;20078;-70
2023/07/07 12:58:49;;;;;;;2.90;1.60;;;;;;;;;;5056688;28;20024;-70
2023/07/07 13:01:14;;;;;;;3.53;1.42;;;;;;;;;;5072134;28;20039;-70
2023/07/07 13:03:43;;;;;;;1.30;1.20;;;;;;;;;;5072184;28;20036;-70
2023/07/07 13:06:22;;;;;;;1.60;1.50;;;;;;;;;;5072851;28;20032;-70
2023/07/07 13:09:01;;;;;;;4.72;1.45;;;;;;;;;;5072834;28;20129;-69
2023/07/07 13:11:30;;;;;;;1.70;1.60;;;;;;;;;;5072971;28;20449;-69
2023/07/07 13:13:55;;;;;;;1.67;1.58;;;;;;;;;;5071740;28;20024;-69
2023/07/07 13:16:22;;;;;;;1.38;1.27;;;;;;;;;;5073084;28;20024;-69
2023/07/07 13:18:47;;;;;;;2.42;1.85;;;;;;;;;;5071769;28;20388;-69
2023/07/07 13:21:13;;;;;;;3.35;1.50;;;;;;;;;;5073045;28;20032;-71
2023/07/07 13:23:40;;;;;;;3.80;2.75;;;;;;;;;;5072795;28;20688;-70
2023/07/07 13:26:20;;;;;;;3.53;2.30;;;;;;;;;;5072915;28;20028;-69
2023/07/07 13:28:45;;;;;;;2.38;1.80;;;;;;;;;;5072533;28;20563;-69
2023/07/07 13:31:14;;;;;;;4.65;1.60;;;;;;;;;;5072652;28;20096;-69
2023/07/07 13:33:40;;;;;;;2.92;1.80;;;;;;;;;;5072675;28;20430;-70
2023/07/07 13:36:07;;;;;;;2.30;2.15;;;;;;;;;;5071485;28;20021;-69
2023/07/07 13:38:34;;;;;;;2.10;2.00;;;;;;;;;;5072863;28;20024;-70
2023/07/07 13:41:01;;;;;;;1.60;1.50;;;;;;;;;;5071391;28;20063;-69
2023/07/07 13:43:33;;;;;;;1.92;1.30;;;;;;;;;;5072571;28;20090;-69
2023/07/07 13:46:09;;;;;;;2.35;1.70;;;;;;;;;;5072509;28;20039;-71
2023/07/07 13:48:35;;;;;;;2.75;1.80;;;;;;;;;;5073089;28;20115;-69
2023/07/07 13:51:03;;;;;;;2.53;1.73;;;;;;;;;;5071529;28;20090;-69
2023/07/07 13:53:29;;;;;;;1.52;1.42;;;;;;;;;;5072690;28;20024;-69
2023/07/07 13:55:56;;;;;;;1.73;1.63;;;;;;;;;;5072422;28;20104;-69
2023/07/07 13:58:23;;;;;;;2.35;1.70;;;;;;;;;;5070590;28;20069;-69
2023/07/07 14:01:00;;;;;;;6.10;2.13;;;;;;;;;;5070295;28;20454;-69
2023/07/07 14:03:25;;;;;;;1.35;1.25;;;;;;;;;;5071725;28;20033;-72
2023/07/07 14:05:54;;;;;;;1.27;1.27;;;;;;;;;;5075467;28;20479;-71
2023/07/07 14:08:21;;;;;;;2.47;2.03;;;;;;;;;;5075996;28;20035;-71
2023/07/07 14:10:51;;;;;;;4.07;2.10;;;;;;;;;;5076231;28;20059;-71
2023/07/07 14:13:20;;;;;;;2.75;1.55;;;;;;;;;;5076072;28;20040;-71
2023/07/07 14:16:00;;;;;;;2.00;1.75;;;;;;;;;;5075231;28;20029;-71
2023/07/07 14:18:29;;;;;;;1.52;1.42;;;;;;;;;;5074775;28;20025;-71
2023/07/07 14:20:56;;;;;;;2.92;1.48;;;;;;;;;;5076139;28;20071;-71
2023/07/07 14:23:22;;;;;;;2.17;1.70;;;;;;;;;;5075237;28;20131;-71
2023/07/07 14:25:53;;;;;;;2.53;1.70;;;;;;;;;;5075092;28;20532;-71
2023/07/07 14:28:19;;;;;;;2.13;1.60;;;;;;;;;;5075078;28;20101;-71
2023/07/07 14:30:49;;;;;;;5.47;1.90;;;;;;;;;;5074916;28;20116;-71
2023/07/07 14:33:17;;;;;;;3.85;2.08;;;;;;;;;;5073927;28;20027;-71
2023/07/07 14:35:43;;;;;;;2.42;1.70;;;;;;;;;;5075536;28;20033;-71
2023/07/07 14:38:23;;;;;;;1.63;1.52;;;;;;;;;;5075465;28;20036;-71
2023/07/07 14:40:48;;;;;;;4.35;1.92;;;;;;;;;;5074230;28;20403;-71
2023/07/07 14:43:18;;;;;;;1.80;1.70;;;;;;;;;;5075522;28;20025;-71
2023/07/07 14:45:44;;;;;;;1.55;1.45;;;;;;;;;;5075173;28;20043;-71
2023/07/07 14:48:19;;;;;;;2.55;2.05;;;;;;;;;;5075246;28;20032;-71
2023/07/07 14:50:44;;;;;;;1.95;1.80;;;;;;;;;;5057222;28;20531;-71